createdAt,value
2023-03-13T00:02:52.254Z,100171.86
2023-03-13T00:05:58.092Z,100172.72
2023-03-13T00:09:08.474Z,100179.98
2023-03-13T00:12:14.266Z,100171.03
2023-03-13T00:15:21.716Z,100177.38
2023-03-13T00:18:28.971Z,100173.19
2023-03-13T00:21:37.346Z,100170.87
2023-03-13T00:24:42.834Z,100174.25
2023-03-13T00:27:51.762Z,100175.27
2023-03-13T00:30:58.420Z,100183.17
2023-03-13T00:34:06.678Z,100177.59
2023-03-13T00:37:13.106Z,100177.06
2023-03-13T00:40:21.087Z,100186.26
2023-03-13T00:43:26.663Z,100184.96
2023-03-13T00:46:36.293Z,100193.03
2023-03-13T00:49:41.396Z,100187.86
2023-03-13T00:52:41.083Z,100185.94
2023-03-13T00:55:34.379Z,100196.20
2023-03-13T00:58:38.954Z,100195.02
2023-03-13T01:01:46.597Z,100200.77
2023-03-13T01:04:53.716Z,100202.64
2023-03-13T01:07:59.102Z,100206.05
2023-03-13T01:11:04.240Z,100210.13
2023-03-13T01:14:15.578Z,100212.33
2023-03-13T01:17:22.119Z,100225.71
2023-03-13T01:20:28.620Z,100231.13
2023-03-13T01:23:34.241Z,100235.44
2023-03-13T01:26:41.984Z,100236.78
2023-03-13T01:29:49.154Z,100242.95
2023-03-13T01:32:55.754Z,100254.67
2023-03-13T01:36:01.623Z,100258.33
2023-03-13T01:39:09.610Z,100258.53
2023-03-13T01:42:18.383Z,100263.27
2023-03-13T01:46:02.720Z,100265.68
2023-03-13T01:49:31.390Z,100273.14
2023-03-13T01:52:41.203Z,100275.94
2023-03-13T01:55:49.293Z,100276.02
2023-03-13T01:58:56.244Z,100288.65
2023-03-13T02:02:01.928Z,100291.63
2023-03-13T02:05:11.999Z,100301.34
2023-03-13T02:08:25.067Z,100307.99
2023-03-13T02:11:30.515Z,100311.16
2023-03-13T02:14:25.056Z,100321.91
2023-03-13T02:17:12.439Z,100328.70
2023-03-13T02:20:05.971Z,100336.08
2023-03-13T02:23:11.796Z,100338.41
2023-03-13T02:26:03.607Z,100345.23
2023-03-13T02:28:59.142Z,100352.44
2023-03-13T02:32:04.972Z,100358.47
2023-03-13T02:35:07.891Z,100359.94
2023-03-13T02:38:17.424Z,100371.72
2023-03-13T02:41:23.284Z,100369.89
2023-03-13T02:44:30.330Z,100377.57
2023-03-13T02:47:38.952Z,100387.35
2023-03-13T02:50:45.418Z,100386.98
2023-03-13T02:53:51.391Z,100397.83
2023-03-13T02:57:01.030Z,100399.73
2023-03-13T03:00:07.830Z,100395.27
2023-03-13T03:03:13.678Z,100399.36
2023-03-13T03:06:22.186Z,100396.23
2023-03-13T03:09:28.178Z,100403.34
2023-03-13T03:12:36.795Z,100402.56
2023-03-13T03:15:41.844Z,100415.20
2023-03-13T03:18:47.312Z,100422.11
2023-03-13T03:21:52.119Z,100422.30
2023-03-13T03:24:57.154Z,100423.45
2023-03-13T03:28:03.290Z,100427.66
2023-03-13T03:31:09.367Z,100423.37
2023-03-13T03:34:14.546Z,100431.05
2023-03-13T03:37:21.910Z,100432.47
2023-03-13T03:40:29.095Z,100442.23
2023-03-13T03:43:35.404Z,100443.47
2023-03-13T03:46:42.751Z,100458.23
2023-03-13T03:49:48.526Z,100471.48
2023-03-13T03:52:54.717Z,100473.89
2023-03-13T03:56:01.649Z,100476.09
2023-03-13T03:59:09.462Z,100478.30
2023-03-13T04:02:17.739Z,100469.47
2023-03-13T04:05:26.120Z,100486.06
2023-03-13T04:08:31.491Z,100492.18
2023-03-13T04:11:37.470Z,100500.41
2023-03-13T04:14:44.016Z,100512.34
2023-03-13T04:17:49.891Z,100512.83
2023-03-13T04:20:55.660Z,100517.23
2023-03-13T04:24:02.603Z,100526.59
2023-03-13T04:27:13.013Z,100527.66
2023-03-13T04:30:18.276Z,100538.66
2023-03-13T04:33:28.979Z,100543.64
2023-03-13T04:36:29.814Z,100552.08
2023-03-13T04:39:38.469Z,100558.20
2023-03-13T04:43:02.013Z,100559.63
2023-03-13T04:46:27.346Z,100569.14
2023-03-13T04:49:36.384Z,100575.64
2023-03-13T04:52:53.253Z,100573.80
2023-03-13T04:56:00.877Z,100580.23
2023-03-13T04:58:56.442Z,100584.45
2023-03-13T05:02:02.715Z,100584.59
2023-03-13T05:05:15.635Z,100597.24
2023-03-13T05:08:26.818Z,100594.73
2023-03-13T05:11:34.654Z,100600.44
2023-03-13T05:14:45.280Z,100606.91
2023-03-13T05:17:55.697Z,100614.25
2023-03-13T05:21:12.549Z,100615.34
2023-03-13T05:24:39.133Z,100625.97
2023-03-13T05:27:51.876Z,100623.52
2023-03-13T05:31:00.206Z,100630.88
2023-03-13T05:34:06.647Z,100641.95
2023-03-13T05:37:20.366Z,100645.42
2023-03-13T05:40:25.086Z,100649.03
2023-03-13T05:43:45.018Z,100651.73
2023-03-13T05:47:06.245Z,100658.83
2023-03-13T05:50:18.494Z,100664.02
2023-03-13T05:53:28.370Z,100670.31
2023-03-13T05:56:36.105Z,100678.31
2023-03-13T05:59:43.240Z,100681.17
2023-03-13T06:03:06.983Z,100685.03
2023-03-13T06:06:15.646Z,100693.14
2023-03-13T06:09:24.237Z,100695.56
2023-03-13T06:12:31.119Z,100697.12
2023-03-13T06:15:39.258Z,100703.86
2023-03-13T06:18:46.659Z,100707.90
2023-03-13T06:21:52.826Z,100705.05
2023-03-13T06:24:59.171Z,100711.62
2023-03-13T06:28:05.669Z,100711.02
2023-03-13T06:31:13.351Z,100717.91
2023-03-13T06:34:20.050Z,100719.47
2023-03-13T06:37:27.818Z,100724.23
2023-03-13T06:40:34.793Z,100730.27
2023-03-13T06:43:40.940Z,100737.66
2023-03-13T06:46:48.098Z,100733.27
2023-03-13T06:49:53.834Z,100736.49
2023-03-13T06:53:00.892Z,100743.30
2023-03-13T06:56:06.810Z,100740.88
2023-03-13T06:59:11.454Z,100754.09
2023-03-13T07:02:18.009Z,100753.23
2023-03-13T07:05:24.537Z,100757.50
2023-03-13T07:08:30.088Z,100769.78
2023-03-13T07:11:36.210Z,100773.09
2023-03-13T07:14:36.730Z,100776.22
2023-03-13T07:17:23.082Z,100782.50
2023-03-13T07:20:18.874Z,100780.08
2023-03-13T07:23:11.757Z,100786.86
2023-03-13T07:26:22.860Z,100794.97
2023-03-13T07:29:31.125Z,100800.86
2023-03-13T07:32:37.069Z,100786.80
2023-03-13T07:35:42.749Z,100795.80
2023-03-13T07:38:50.506Z,100799.33
2023-03-13T07:41:56.062Z,100794.44
2023-03-13T07:45:03.109Z,100808.09
2023-03-13T07:48:09.243Z,100803.36
2023-03-13T07:51:14.825Z,100808.12
2023-03-13T07:54:21.171Z,100796.61
2023-03-13T07:57:28.405Z,100802.55
2023-03-13T08:00:35.662Z,100794.10
2023-03-13T08:03:43.465Z,100800.86
2023-03-13T08:06:50.372Z,100800.52
2023-03-13T08:09:56.896Z,100814.80
2023-03-13T08:13:04.343Z,100815.83
2023-03-13T08:16:22.885Z,100815.12
2023-03-13T08:19:28.149Z,100819.69
2023-03-13T08:22:33.444Z,100823.13
2023-03-13T08:25:39.786Z,100822.82
2023-03-13T08:28:47.619Z,100822.55
2023-03-13T08:31:59.701Z,100825.27
2023-03-13T08:35:05.940Z,100822.71
2023-03-13T08:38:14.566Z,100831.09
2023-03-13T08:41:21.034Z,100829.25
2023-03-13T08:44:30.133Z,100826.55
2023-03-13T08:47:34.793Z,100824.20
2023-03-13T08:50:41.377Z,100824.84
2023-03-13T08:53:46.707Z,100829.41
2023-03-13T08:56:53.697Z,100831.83
2023-03-13T08:59:59.542Z,100833.45
2023-03-13T09:03:06.086Z,100840.85
2023-03-13T09:06:14.921Z,100844.05
2023-03-13T09:09:24.502Z,100834.09
2023-03-13T09:12:31.412Z,100829.53
2023-03-13T09:15:37.711Z,100836.93
2023-03-13T09:18:44.605Z,100839.64
2023-03-13T09:21:50.454Z,100845.28
2023-03-13T09:24:55.998Z,100839.64
2023-03-13T09:28:03.434Z,100847.04
2023-03-13T09:31:09.594Z,100848.26
2023-03-13T09:34:15.315Z,100844.83
2023-03-13T09:37:20.764Z,100857.64
2023-03-13T09:40:33.105Z,100859.48
2023-03-13T09:44:07.878Z,100856.88
2023-03-13T09:47:20.923Z,100852.35
2023-03-13T09:50:50.488Z,100842.02
2023-03-13T09:54:21.668Z,100849.38
2023-03-13T09:57:48.821Z,100849.05
2023-03-13T10:00:55.733Z,100845.34
2023-03-13T10:04:12.085Z,100846.46
2023-03-13T10:07:17.509Z,100839.69
2023-03-13T10:10:37.557Z,100838.92
2023-03-13T10:13:50.819Z,100835.48
2023-03-13T10:17:19.713Z,100832.03
2023-03-13T10:20:36.619Z,100835.59
2023-03-13T10:24:21.745Z,100826.23
2023-03-13T10:27:28.487Z,100831.89
2023-03-13T10:30:42.409Z,100829.31
2023-03-13T10:33:49.067Z,100827.84
2023-03-13T10:37:05.775Z,100826.61
2023-03-13T10:40:25.463Z,100823.40
2023-03-13T10:43:37.518Z,100835.45
2023-03-13T10:46:46.326Z,100834.59
2023-03-13T10:49:52.715Z,100832.02
2023-03-13T10:53:00.471Z,100836.31
2023-03-13T10:56:09.353Z,100837.79
2023-03-13T10:59:15.363Z,100830.88
2023-03-13T11:02:37.606Z,100827.56
2023-03-13T11:05:55.510Z,100826.81
2023-03-13T11:09:02.221Z,100814.45
2023-03-13T11:12:11.146Z,100814.09
2023-03-13T11:15:18.944Z,100816.06
2023-03-13T11:18:42.395Z,100805.94
2023-03-13T11:22:12.694Z,100802.36
2023-03-13T11:25:35.540Z,100795.81
2023-03-13T11:29:07.062Z,100799.24
2023-03-13T11:32:17.133Z,100796.89
2023-03-13T11:35:36.938Z,100791.39
2023-03-13T11:38:56.694Z,100795.53
2023-03-13T11:42:41.529Z,100793.57
2023-03-13T11:46:25.109Z,100798.11
2023-03-13T11:49:52.554Z,100796.28
2023-03-13T11:53:09.307Z,100793.33
2023-03-13T11:56:29.309Z,100791.83
2023-03-13T12:00:04.654Z,100792.66
2023-03-13T12:03:31.465Z,100792.77
2023-03-13T12:07:04.577Z,100790.30
2023-03-13T12:10:19.015Z,100799.52
2023-03-13T12:13:55.690Z,100796.20
2023-03-13T12:17:18.180Z,100803.08
2023-03-13T12:20:34.519Z,100804.52
2023-03-13T12:24:06.295Z,100804.27
2023-03-13T12:27:38.628Z,100803.55
2023-03-13T12:30:55.391Z,100809.73
2023-03-13T12:34:31.100Z,100819.33
2023-03-13T12:37:42.462Z,100813.55
2023-03-13T12:41:09.178Z,100804.62
2023-03-13T12:44:15.503Z,100810.83
2023-03-13T12:47:44.606Z,100806.77
2023-03-13T12:51:12.674Z,100805.27
2023-03-13T12:54:39.533Z,100809.48
2023-03-13T12:58:19.925Z,100804.27
2023-03-13T13:01:29.916Z,100802.91
2023-03-13T13:04:40.036Z,100802.55
2023-03-13T13:07:51.039Z,100799.84
2023-03-13T13:10:58.032Z,100802.91
2023-03-13T13:14:04.821Z,100799.44
2023-03-13T13:17:17.510Z,100799.84
2023-03-13T13:20:41.759Z,100798.20
2023-03-13T13:23:57.400Z,100802.66
2023-03-13T13:27:03.248Z,100804.62
2023-03-13T13:30:11.086Z,100804.05
2023-03-13T13:33:44.719Z,100803.05
2023-03-13T13:36:56.680Z,100800.09
2023-03-13T13:40:03.949Z,100794.09
2023-03-13T13:43:19.568Z,100788.95
2023-03-13T13:46:46.105Z,100787.09
2023-03-13T13:49:55.240Z,100790.41
2023-03-13T13:53:02.108Z,100786.84
2023-03-13T13:56:09.836Z,100783.70
2023-03-13T13:59:38.902Z,100777.52
2023-03-13T14:02:51.459Z,100783.09
2023-03-13T14:05:59.252Z,100783.23
2023-03-13T14:09:07.422Z,100788.40
2023-03-13T14:12:13.874Z,100789.75
2023-03-13T14:15:30.634Z,100788.28
2023-03-13T14:18:41.967Z,100790.89
2023-03-13T14:21:47.954Z,100787.33
2023-03-13T14:24:54.193Z,100781.62
2023-03-13T14:28:00.985Z,100787.18
2023-03-13T14:31:09.799Z,100783.45
2023-03-13T14:34:17.807Z,100786.21
2023-03-13T14:37:40.377Z,100777.99
2023-03-13T14:40:48.867Z,100779.09
2023-03-13T14:43:57.617Z,100776.66
2023-03-13T14:47:05.095Z,100779.48
2023-03-13T14:50:21.748Z,100781.11
2023-03-13T14:53:30.023Z,100781.23
2023-03-13T14:56:35.469Z,100777.55
2023-03-13T14:59:41.683Z,100786.56
2023-03-13T15:02:49.688Z,100794.21
2023-03-13T15:05:49.448Z,100796.30
2023-03-13T15:08:58.790Z,100801.13
2023-03-13T15:12:16.556Z,100804.22
2023-03-13T15:15:25.189Z,100805.20
2023-03-13T15:18:34.621Z,100805.56
2023-03-13T15:21:35.237Z,100805.45
2023-03-13T15:24:40.678Z,100794.98
2023-03-13T15:27:47.019Z,100800.91
2023-03-13T15:30:53.255Z,100800.91
2023-03-13T15:33:59.008Z,100797.95
2023-03-13T15:37:06.193Z,100796.83
2023-03-13T15:40:14.711Z,100794.13
2023-03-13T15:43:21.386Z,100789.94
2023-03-13T15:46:29.088Z,100799.77
2023-03-13T15:49:36.347Z,100797.28
2023-03-13T15:52:42.217Z,100801.83
2023-03-13T15:55:50.529Z,100790.38
2023-03-13T15:58:56.461Z,100790.12
2023-03-13T16:02:04.080Z,100795.16
2023-03-13T16:05:11.811Z,100808.25
2023-03-13T16:08:29.143Z,100804.81
2023-03-13T16:11:27.921Z,100812.14
2023-03-13T16:14:34.315Z,100819.95
2023-03-13T16:17:40.178Z,100831.02
2023-03-13T16:20:46.959Z,100832.10
2023-03-13T16:23:53.903Z,100832.72
2023-03-13T16:27:00.566Z,100841.81
2023-03-13T16:30:06.655Z,100849.63
2023-03-13T16:33:13.714Z,100856.44
2023-03-13T16:36:32.181Z,100851.99
2023-03-13T16:39:39.013Z,100839.69
2023-03-13T16:42:45.717Z,100843.95
2023-03-13T16:45:54.174Z,100850.46
2023-03-13T16:49:03.154Z,100852.67
2023-03-13T16:52:11.277Z,100856.32
2023-03-13T16:54:59.785Z,100857.39
2023-03-13T16:57:51.874Z,100854.53
2023-03-13T17:01:02.719Z,100851.80
2023-03-13T17:03:54.974Z,100857.59
2023-03-13T17:07:01.200Z,100855.17
2023-03-13T17:10:07.544Z,100860.66
2023-03-13T17:13:13.829Z,100857.80
2023-03-13T17:16:14.717Z,100855.09
2023-03-13T17:19:21.585Z,100857.14
2023-03-13T17:22:28.291Z,100856.89
2023-03-13T17:25:35.446Z,100864.84
2023-03-13T17:28:41.725Z,100861.04
2023-03-13T17:31:47.672Z,100861.36
2023-03-13T17:34:53.160Z,100863.52
2023-03-13T17:37:58.549Z,100854.39
2023-03-13T17:41:00.548Z,100860.53
2023-03-13T17:44:08.041Z,100866.47
2023-03-13T17:47:14.279Z,100864.84
2023-03-13T17:50:36.274Z,100876.23
2023-03-13T17:53:42.502Z,100879.32
2023-03-13T17:56:49.992Z,100882.19
2023-03-13T17:59:52.591Z,100886.60
2023-03-13T18:02:59.511Z,100890.89
2023-03-13T18:06:06.024Z,100892.33
2023-03-13T18:09:15.080Z,100895.93
2023-03-13T18:12:17.919Z,100894.02
2023-03-13T18:15:11.348Z,100894.64
2023-03-13T18:18:16.566Z,100902.95
2023-03-13T18:21:23.523Z,100907.38
2023-03-13T18:24:30.137Z,100900.27
2023-03-13T18:27:36.026Z,100906.44
2023-03-13T18:30:43.143Z,100908.75
2023-03-13T18:33:49.792Z,100911.64
2023-03-13T18:36:55.860Z,100911.53
2023-03-13T18:40:04.352Z,100918.37
2023-03-13T18:43:09.702Z,100923.19
2023-03-13T18:46:15.596Z,100927.05
2023-03-13T18:49:31.076Z,100929.74
2023-03-13T18:52:36.610Z,100939.17
2023-03-13T18:55:39.354Z,100942.05
2023-03-13T18:58:49.745Z,100942.23
2023-03-13T19:01:55.744Z,100942.34
2023-03-13T19:05:01.616Z,100934.05
2023-03-13T19:08:07.499Z,100939.66
2023-03-13T19:11:13.309Z,100942.80
2023-03-13T19:14:20.067Z,100943.88
2023-03-13T19:17:41.471Z,100942.91
2023-03-13T19:20:47.607Z,100951.55
2023-03-13T19:23:54.020Z,100946.66
2023-03-13T19:27:08.329Z,100945.80
2023-03-13T19:30:14.944Z,100941.01
2023-03-13T19:33:20.797Z,100950.25
2023-03-13T19:36:28.072Z,100953.24
2023-03-13T19:39:39.287Z,100963.02
2023-03-13T19:42:45.308Z,100951.55
2023-03-13T19:45:52.287Z,100949.65
2023-03-13T19:48:59.150Z,100950.51
2023-03-13T19:52:07.560Z,100952.53
2023-03-13T19:55:13.357Z,100945.00
2023-03-13T19:58:20.109Z,100953.45
2023-03-13T20:01:26.232Z,100944.88
2023-03-13T20:04:32.215Z,100946.11
2023-03-13T20:07:37.429Z,100951.80
2023-03-13T20:10:43.737Z,100945.73
2023-03-13T20:13:52.752Z,100944.69
2023-03-13T20:16:59.764Z,100942.30
2023-03-13T20:20:06.180Z,100940.17
2023-03-13T20:23:12.601Z,100934.78
2023-03-13T20:26:21.105Z,100929.31
2023-03-13T20:29:26.435Z,100922.84
2023-03-13T20:32:32.078Z,100915.23
2023-03-13T20:35:37.839Z,100914.48
2023-03-13T20:38:44.813Z,100919.52
2023-03-13T20:41:49.715Z,100918.77
2023-03-13T20:44:56.494Z,100924.23
2023-03-13T20:48:03.489Z,100927.27
2023-03-13T20:51:10.016Z,100924.59
2023-03-13T20:54:15.122Z,100923.53
2023-03-13T20:57:23.168Z,100920.95
2023-03-13T21:00:30.085Z,100919.34
2023-03-13T21:03:38.961Z,100924.35
2023-03-13T21:06:44.720Z,100925.91
2023-03-13T21:09:50.752Z,100922.63
2023-03-13T21:12:58.222Z,100921.49
2023-03-13T21:16:03.790Z,100921.57
2023-03-13T21:19:09.921Z,100926.31
2023-03-13T21:22:16.553Z,100926.95
2023-03-13T21:25:23.748Z,100924.59
2023-03-13T21:28:30.404Z,100927.73
2023-03-13T21:31:38.227Z,100926.39
2023-03-13T21:34:43.468Z,100930.42
2023-03-13T21:37:43.051Z,100926.31
2023-03-13T21:40:49.452Z,100925.15
2023-03-13T21:43:56.504Z,100917.47
2023-03-13T21:47:05.712Z,100912.86
2023-03-13T21:50:11.808Z,100911.22
2023-03-13T21:53:18.483Z,100916.22
2023-03-13T21:56:24.616Z,100911.70
2023-03-13T21:59:34.568Z,100915.17
2023-03-13T22:02:40.499Z,100913.53
2023-03-13T22:05:46.571Z,100913.45
2023-03-13T22:08:47.347Z,100909.59
2023-03-13T22:11:54.703Z,100901.89
2023-03-13T22:15:00.232Z,100901.03
2023-03-13T22:18:05.370Z,100905.55
2023-03-13T22:21:15.605Z,100902.00
2023-03-13T22:24:22.456Z,100903.62
2023-03-13T22:27:30.519Z,100908.92
2023-03-13T22:30:36.710Z,100903.62
2023-03-13T22:33:37.524Z,100912.66
2023-03-13T22:36:30.415Z,100904.20
2023-03-13T22:39:37.493Z,100912.08
2023-03-13T22:42:44.447Z,100913.42
2023-03-13T22:45:50.769Z,100907.87
2023-03-13T22:48:55.687Z,100920.25
2023-03-13T22:52:01.180Z,100918.13
2023-03-13T22:55:07.309Z,100920.54
2023-03-13T22:58:14.270Z,100919.58
2023-03-13T23:01:29.295Z,100912.55
2023-03-13T23:04:36.043Z,100914.56
2023-03-13T23:07:45.274Z,100920.22
2023-03-13T23:10:51.110Z,100918.39
2023-03-13T23:13:58.060Z,100921.73
2023-03-13T23:17:04.625Z,100925.88
2023-03-13T23:20:13.125Z,100919.33
2023-03-13T23:23:19.075Z,100915.50
2023-03-13T23:26:29.583Z,100912.98
2023-03-13T23:29:35.811Z,100909.23
2023-03-13T23:32:42.095Z,100911.47
2023-03-13T23:35:52.693Z,100909.78
2023-03-13T23:38:58.674Z,100909.89
2023-03-13T23:42:05.027Z,100911.23
2023-03-13T23:45:14.049Z,100904.78
2023-03-13T23:48:20.515Z,100903.92
2023-03-13T23:51:27.674Z,100904.68
2023-03-13T23:54:33.415Z,100900.86
2023-03-13T23:57:39.926Z,100898.75
